Time;durP1;ratioP1;P1;durP2;ratioP2;P2;SDS_P1;SDS_P2;PMS_P1;PMS_P2;Temp;Humidity;BMP_temperature;BMP_pressure;BME280_temperature;BME280_humidity;BME280_pressure;Samples;Min_cycle;Max_cycle;Signal;HPM_P1;HPM_P2
2022/05/19 00:00:25;;;;;;;24.38;17.23;;;;;;;18.99;96.56;101723.84;4975438;28;20519;-59
2022/05/19 00:02:53;;;;;;;20.50;16.63;;;;;;;18.96;97.14;101728.56;4976320;28;20059;-58
2022/05/19 00:05:23;;;;;;;22.55;16.27;;;;;;;18.97;97.01;101731.09;4974318;28;20074;-59
2022/05/19 00:07:51;;;;;;;26.13;17.60;;;;;;;18.94;97.43;101727.84;4972904;28;20510;-57
2022/05/19 00:10:19;;;;;;;20.13;16.25;;;;;;;18.94;97.47;101719.84;4975018;28;20059;-58
2022/05/19 00:12:47;;;;;;;20.70;16.88;;;;;;;18.91;97.58;101715.66;4976141;28;20083;-57
2022/05/19 00:15:15;;;;;;;23.73;17.13;;;;;;;18.86;97.99;101724.00;4975936;28;20055;-59
2022/05/19 00:17:44;;;;;;;22.52;15.68;;;;;;;18.86;98.17;101724.00;4976386;28;20070;-59
2022/05/19 00:20:12;;;;;;;22.08;15.55;;;;;;;18.84;98.06;101723.31;4976131;28;20042;-59
2022/05/19 00:22:41;;;;;;;23.45;16.98;;;;;;;18.85;98.16;101714.31;4975711;28;20081;-59
2022/05/19 00:25:10;;;;;;;25.77;17.20;;;;;;;18.83;98.26;101716.28;4975841;28;20047;-58
2022/05/19 00:27:38;;;;;;;21.35;15.60;;;;;;;18.81;98.56;101718.22;4974969;28;20070;-59
2022/05/19 00:30:07;;;;;;;21.95;15.77;;;;;;;18.75;98.84;101714.28;4971830;28;20101;-58
2022/05/19 00:32:35;;;;;;;21.40;16.63;;;;;;;18.77;98.75;101700.81;4973245;28;20470;-57
2022/05/19 00:35:03;;;;;;;23.38;16.40;;;;;;;18.74;99.10;101709.91;4975492;28;20106;-58
2022/05/19 00:37:31;;;;;;;22.63;15.95;;;;;;;18.79;98.89;101698.00;4975271;28;20058;-59
2022/05/19 00:40:01;;;;;;;20.45;17.77;;;;;;;18.73;99.48;101702.06;4975500;28;20078;-60
2022/05/19 00:42:44;;;;;;;22.52;17.15;;;;;;;18.69;99.65;101701.50;4975201;28;20105;-60
2022/05/19 00:45:14;;;;;;;24.63;17.60;;;;;;;18.64;99.70;101701.03;4971323;28;20047;-59
2022/05/19 00:47:47;;;;;;;22.55;17.15;;;;;;;18.59;100.00;101701.41;4973356;28;20502;-59
2022/05/19 00:50:22;;;;;;;22.55;16.58;;;;;;;18.63;100.00;101702.00;4975465;28;20042;-59
2022/05/19 00:52:54;;;;;;;23.05;17.50;;;;;;;18.65;100.00;101693.88;4973547;28;20506;-60
2022/05/19 00:55:28;;;;;;;25.80;17.83;;;;;;;18.61;100.00;101685.34;4974959;28;20055;-60
2022/05/19 00:58:01;;;;;;;23.90;17.38;;;;;;;18.59;100.00;101668.63;4974864;28;20110;-60
2022/05/19 01:00:29;;;;;;;23.77;17.17;;;;;;;18.54;100.00;101669.03;4972218;28;20117;-59
2022/05/19 01:03:00;;;;;;;23.88;17.65;;;;;;;18.51;100.00;101668.44;4970060;28;20085;-58
2022/05/19 01:05:34;;;;;;;22.27;16.83;;;;;;;18.46;100.00;101663.53;4974198;28;20051;-56
2022/05/19 01:08:09;;;;;;;27.20;17.42;;;;;;;18.42;100.00;101660.28;4971361;28;20047;-59
2022/05/19 01:10:40;;;;;;;22.75;17.80;;;;;;;18.40;100.00;101659.53;4972454;28;20537;-59
2022/05/19 01:13:11;;;;;;;25.75;18.33;;;;;;;18.38;100.00;101656.19;4974755;28;20070;-56
2022/05/19 01:15:44;;;;;;;22.23;17.60;;;;;;;18.34;100.00;101652.09;4971142;28;20046;-57
2022/05/19 01:18:15;;;;;;;25.20;19.10;;;;;;;18.32;100.00;101647.88;4971573;28;20105;-58
2022/05/19 01:20:44;;;;;;;29.27;20.75;;;;;;;18.32;100.00;101647.88;4974119;28;20388;-57
2022/05/19 01:23:20;;;;;;;24.77;19.75;;;;;;;18.28;100.00;101644.63;4974161;28;20145;-59
2022/05/19 01:26:00;;;;;;;28.15;20.10;;;;;;;18.29;100.00;101651.63;4974479;28;20053;-58
2022/05/19 01:28:30;;;;;;;28.17;20.77;;;;;;;18.25;100.00;101647.56;4973171;28;20118;-59
2022/05/19 01:30:58;;;;;;;28.38;20.88;;;;;;;18.23;100.00;101636.22;4974639;28;20134;-57
2022/05/19 01:33:27;;;;;;;29.63;21.65;;;;;;;18.20;100.00;101641.78;4972718;28;20054;-56
2022/05/19 01:35:55;;;;;;;33.15;22.63;;;;;;;18.18;100.00;101643.72;4970933;28;20498;-59
2022/05/19 01:38:27;;;;;;;31.27;22.02;;;;;;;18.16;100.00;101640.34;4973448;28;20502;-59
2022/05/19 01:41:08;;;;;;;30.95;21.35;;;;;;;18.12;100.00;101638.91;4973480;28;20050;-59
2022/05/19 01:43:46;;;;;;;32.35;21.40;;;;;;;18.12;100.00;101639.78;4972870;28;20082;-59
2022/05/19 01:46:23;;;;;;;29.38;21.83;;;;;;;18.11;100.00;101635.41;4972946;28;20105;-56
2022/05/19 01:48:58;;;;;;;37.45;23.58;;;;;;;18.02;100.00;101628.22;4971136;28;20070;-59
2022/05/19 01:51:32;;;;;;;29.42;22.80;;;;;;;18.05;100.00;101625.28;4973944;28;20043;-59
2022/05/19 01:54:07;;;;;;;32.60;22.45;;;;;;;18.02;100.00;101623.72;4974125;28;20039;-56
2022/05/19 01:56:42;;;;;;;28.70;22.45;;;;;;;18.04;100.00;101619.13;4974102;28;20051;-57
2022/05/19 01:59:19;;;;;;;30.15;23.60;;;;;;;17.96;100.00;101613.63;4970752;28;20059;-59
2022/05/19 02:01:56;;;;;;;27.42;21.77;;;;;;;17.94;100.00;101610.22;4970956;28;20054;-59
2022/05/19 02:04:31;;;;;;;32.63;23.50;;;;;;;17.83;100.00;101611.13;4973975;28;20046;-57
2022/05/19 02:07:04;;;;;;;28.83;22.95;;;;;;;17.90;100.00;101614.09;4973917;28;20066;-59
2022/05/19 02:09:35;;;;;;;;;;;;;;;17.83;100.00;101608.47;4974277;28;20043;-58
2022/05/19 02:12:05;;;;;;;30.33;23.67;;;;;;;17.85;100.00;101603.00;4973676;28;19922;-57
2022/05/19 02:14:38;;;;;;;31.65;23.35;;;;;;;17.83;100.00;101596.97;4969768;28;20081;-59
2022/05/19 02:17:12;;;;;;;30.17;23.20;;;;;;;17.87;100.00;101603.72;4971948;28;20039;-57
2022/05/19 02:19:43;;;;;;;34.15;23.80;;;;;;;17.84;100.00;101596.00;4973579;28;20051;-60
2022/05/19 02:22:15;;;;;;;29.92;22.92;;;;;;;17.81;100.00;101597.09;4974076;28;20382;-57
2022/05/19 02:24:49;;;;;;;28.63;22.63;;;;;;;17.81;100.00;101593.59;4973814;28;20405;-59
2022/05/19 02:27:32;;;;;;;30.73;22.73;;;;;;;17.78;100.00;101588.50;4972247;28;20542;-56
2022/05/19 02:30:07;;;;;;;29.70;23.42;;;;;;;17.78;100.00;101585.84;4969597;28;20664;-60
2022/05/19 02:32:35;;;;;;;30.50;23.05;;;;;;;17.77;100.00;101584.19;4972767;28;20066;-57
2022/05/19 02:35:04;;;;;;;31.70;23.48;;;;;;;17.76;100.00;101579.84;4973449;28;20109;-58
2022/05/19 02:37:33;;;;;;;31.20;23.38;;;;;;;17.71;100.00;101583.72;4973497;28;20050;-57
2022/05/19 02:40:03;;;;;;;32.30;24.60;;;;;;;17.68;100.00;101585.78;4973498;28;20538;-60
2022/05/19 02:42:32;;;;;;;28.55;22.17;;;;;;;17.70;100.00;101600.66;4971005;28;20042;-59
2022/05/19 02:45:02;;;;;;;28.35;23.15;;;;;;;17.70;100.00;101599.81;4969839;28;20078;-58
2022/05/19 02:47:30;;;;;;;29.55;22.40;;;;;;;17.71;100.00;101601.47;4973110;28;20051;-58
2022/05/19 02:49:58;;;;;;;27.95;22.25;;;;;;;17.71;100.00;101598.81;4973158;28;20371;-57
2022/05/19 02:52:26;;;;;;;30.83;22.63;;;;;;;17.69;100.00;101606.94;4972002;28;20046;-60
2022/05/19 02:54:54;;;;;;;31.02;22.92;;;;;;;17.69;100.00;101601.63;4970248;28;20086;-58
2022/05/19 02:57:22;;;;;;;28.10;22.48;;;;;;;17.75;100.00;101608.22;4970974;28;20062;-58
2022/05/19 02:59:50;;;;;;;28.30;23.15;;;;;;;17.71;100.00;101601.47;4972876;28;20053;-57
2022/05/19 03:02:20;;;;;;;29.77;23.02;;;;;;;17.69;100.00;101596.28;4970530;28;20046;-59
2022/05/19 03:04:48;;;;;;;33.13;23.30;;;;;;;17.67;100.00;101600.91;4970036;28;20051;-60
2022/05/19 03:07:16;;;;;;;26.17;21.73;;;;;;;17.65;100.00;101597.53;4973071;28;20449;-60
2022/05/19 03:09:45;;;;;;;31.20;22.85;;;;;;;17.65;100.00;101610.81;4972940;28;20058;-58
2022/05/19 03:12:14;;;;;;;28.80;21.83;;;;;;;17.67;100.00;101605.38;4969739;28;20102;-58
2022/05/19 03:14:42;;;;;;;28.13;22.63;;;;;;;17.65;100.00;101610.00;4969200;28;20055;-57
2022/05/19 03:17:11;;;;;;;29.42;23.83;;;;;;;17.62;100.00;101611.09;4973411;28;20039;-57
2022/05/19 03:19:40;;;;;;;28.80;23.63;;;;;;;17.64;100.00;101619.78;4973002;28;20058;-59
2022/05/19 03:22:08;;;;;;;28.10;22.88;;;;;;;17.63;100.00;101614.56;4972955;28;20118;-59
2022/05/19 03:24:37;;;;;;;33.08;23.63;;;;;;;17.62;100.00;101611.09;4972872;28;20558;-59
2022/05/19 03:27:06;;;;;;;28.95;22.35;;;;;;;17.60;100.00;101623.69;4972727;28;20055;-60
2022/05/19 03:29:34;;;;;;;27.83;22.77;;;;;;;17.61;100.00;101620.03;4973094;28;20134;-59
2022/05/19 03:32:03;;;;;;;26.38;22.70;;;;;;;17.58;100.00;101615.81;4971922;28;20128;-59
2022/05/19 03:34:31;;;;;;;30.20;23.42;;;;;;;17.61;100.00;101625.34;4969910;28;20051;-59
2022/05/19 03:37:03;;;;;;;31.40;23.95;;;;;;;17.61;100.00;101632.50;4971125;28;20070;-59
2022/05/19 03:39:31;;;;;;;31.67;25.13;;;;;;;17.53;100.00;101680.97;4969406;28;20502;-59
2022/05/19 03:41:59;;;;;;;31.33;26.75;;;;;;;17.26;100.00;101759.34;4968008;28;20457;-58
2022/05/19 03:44:28;;;;;;;34.58;25.08;;;;;;;17.35;100.00;101672.69;4972890;28;20058;-57
2022/05/19 03:46:56;;;;;;;25.27;21.80;;;;;;;17.44;100.00;101741.09;4973065;28;20050;-59
2022/05/19 03:49:24;;;;;;;19.65;14.93;;;;;;;17.54;100.00;101757.13;4972829;28;20133;-59
2022/05/19 03:51:52;;;;;;;26.67;17.33;;;;;;;17.63;100.00;101721.81;4969929;28;20054;-59
2022/05/19 03:54:21;;;;;;;23.02;17.77;;;;;;;17.78;100.00;101732.16;4969226;28;20061;-59
2022/05/19 03:56:49;;;;;;;20.27;17.13;;;;;;;17.78;100.00;101727.72;4972879;28;20058;-59
2022/05/19 03:59:17;;;;;;;24.80;18.00;;;;;;;17.82;100.00;101728.28;4972554;28;20053;-57
2022/05/19 04:01:46;;;;;;;22.75;17.13;;;;;;;17.85;100.00;101741.34;4972530;28;20453;-57
2022/05/19 04:04:14;;;;;;;22.95;17.40;;;;;;;17.86;100.00;101745.69;4975884;28;20054;-57
2022/05/19 04:06:43;;;;;;;21.17;18.15;;;;;;;17.90;100.00;101741.81;4974590;28;20410;-57
2022/05/19 04:09:11;;;;;;;25.42;18.92;;;;;;;17.94;100.00;101737.94;4972597;28;20070;-57
2022/05/19 04:11:40;;;;;;;22.48;18.33;;;;;;;17.97;100.00;101744.84;4972637;28;20062;-57
2022/05/19 04:14:09;;;;;;;24.75;18.58;;;;;;;17.97;100.00;101745.69;4975913;28;20046;-60
2022/05/19 04:16:37;;;;;;;22.50;18.15;;;;;;;17.99;100.00;101746.41;4975942;28;20050;-59
2022/05/19 04:19:05;;;;;;;23.58;18.02;;;;;;;17.99;100.00;101735.75;4975601;28;20058;-60
2022/05/19 04:21:34;;;;;;;24.38;17.83;;;;;;;18.03;100.00;101734.53;4972439;28;20101;-60
2022/05/19 04:24:02;;;;;;;24.15;17.02;;;;;;;18.03;100.00;101737.19;4973271;28;20050;-57
2022/05/19 04:26:30;;;;;;;21.25;15.85;;;;;;;18.07;100.00;101737.78;4976066;28;20137;-59
2022/05/19 04:28:59;;;;;;;25.25;16.95;;;;;;;18.12;100.00;101740.94;4975468;28;20055;-57
2022/05/19 04:31:27;;;;;;;22.88;16.85;;;;;;;18.16;100.00;101736.16;4972866;28;20061;-60
2022/05/19 04:33:56;;;;;;;21.45;17.77;;;;;;;18.21;100.00;101731.31;4972617;28;20504;-57
2022/05/19 04:36:24;;;;;;;20.90;16.13;;;;;;;18.19;100.00;101727.94;4975384;28;20046;-59
2022/05/19 04:38:52;;;;;;;24.42;16.83;;;;;;;18.22;100.00;101733.00;4972218;28;20134;-57
2022/05/19 04:41:20;;;;;;;19.65;15.55;;;;;;;18.26;100.00;101739.75;4972683;28;20403;-57
2022/05/19 04:43:48;;;;;;;21.48;16.55;;;;;;;18.28;100.00;101735.13;4975458;28;20058;-59
2022/05/19 04:46:18;;;;;;;19.75;15.30;;;;;;;18.30;100.00;101738.53;4975276;28;20070;-59
2022/05/19 04:48:46;;;;;;;22.17;14.88;;;;;;;18.34;100.00;101734.63;4975189;28;20138;-59
2022/05/19 04:51:14;;;;;;;20.38;15.68;;;;;;;18.38;100.00;101740.56;4975277;28;20536;-56
2022/05/19 04:53:42;;;;;;;18.40;14.05;;;;;;;18.40;100.00;101736.75;4975254;28;20055;-58
2022/05/19 04:56:10;;;;;;;19.33;13.82;;;;;;;18.43;100.00;101722.34;4970812;28;20051;-60
2022/05/19 04:58:38;;;;;;;18.55;13.75;;;;;;;18.48;100.00;101727.31;4972109;28;20105;-55
2022/05/19 05:01:06;;;;;;;18.00;13.80;;;;;;;18.48;100.00;101736.13;4974288;28;20522;-60
2022/05/19 05:03:36;;;;;;;18.30;13.73;;;;;;;18.53;100.00;101738.41;4971003;28;20082;-57
2022/05/19 05:06:04;;;;;;;16.75;12.63;;;;;;;18.54;100.00;101748.06;4972740;28;20474;-57
2022/05/19 05:08:32;;;;;;;16.25;12.32;;;;;;;18.55;100.00;101753.25;4973220;28;20078;-59
2022/05/19 05:11:02;;;;;;;18.80;12.73;;;;;;;18.54;100.00;101750.75;4970754;28;20159;-59
2022/05/19 05:13:30;;;;;;;20.05;11.82;;;;;;;18.57;100.00;101746.00;4974265;28;20046;-59
2022/05/19 05:15:58;;;;;;;18.75;12.45;;;;;;;18.61;100.00;101735.94;4974079;28;20054;-58
2022/05/19 05:18:27;;;;;;;15.10;11.55;;;;;;;18.65;100.00;101724.06;4974714;28;20089;-57
2022/05/19 05:20:56;;;;;;;15.32;11.80;;;;;;;18.67;100.00;101722.09;4972873;28;20058;-57
2022/05/19 05:23:24;;;;;;;16.63;10.05;;;;;;;18.72;100.00;101717.22;4971761;28;20046;-57
2022/05/19 05:25:52;;;;;;;13.77;9.18;;;;;;;18.81;100.00;101720.06;4973611;28;20051;-58
2022/05/19 05:28:20;;;;;;;13.35;7.03;;;;;;;18.87;100.00;101727.50;4973387;28;20102;-58
2022/05/19 05:30:49;;;;;;;12.45;6.07;;;;;;;19.00;100.00;101745.97;4974319;28;20046;-57
2022/05/19 05:33:18;;;;;;;11.57;5.18;;;;;;;19.17;98.63;101748.03;4973047;28;20055;-60
2022/05/19 05:35:46;;;;;;;9.82;5.05;;;;;;;19.25;98.47;101750.00;4970488;28;20042;-60
2022/05/19 05:38:15;;;;;;;10.23;5.32;;;;;;;19.36;97.58;101741.91;4973693;28;20077;-57
2022/05/19 05:40:43;;;;;;;12.43;5.35;;;;;;;19.39;97.31;101736.31;4973216;28;20454;-57
2022/05/19 05:43:14;;;;;;;7.57;3.95;;;;;;;19.45;95.08;101734.91;4971127;28;20402;-57
2022/05/19 05:45:43;;;;;;;6.30;3.08;;;;;;;19.47;92.85;101754.31;4971940;28;20046;-59
2022/05/19 05:48:12;;;;;;;5.35;2.60;;;;;;;19.53;91.71;101758.25;4973793;28;20065;-57
2022/05/19 05:50:40;;;;;;;6.78;2.60;;;;;;;19.56;92.04;101748.13;4973854;28;20077;-60
2022/05/19 05:53:09;;;;;;;6.45;2.60;;;;;;;19.61;91.93;101741.56;4969930;28;20042;-57
2022/05/19 05:55:40;;;;;;;4.35;2.17;;;;;;;19.71;90.90;101723.72;4970835;28;20097;-59
2022/05/19 05:58:10;;;;;;;4.13;1.98;;;;;;;19.75;89.30;101733.97;4972296;28;20521;-57
2022/05/19 06:00:38;;;;;;;4.80;2.33;;;;;;;19.82;90.23;101731.63;4973884;28;20086;-55
2022/05/19 06:03:06;;;;;;;6.18;2.70;;;;;;;19.89;89.12;101727.44;4973059;28;20081;-59
2022/05/19 06:05:35;;;;;;;3.63;2.03;;;;;;;19.97;89.05;101718.72;4973233;28;20529;-57
2022/05/19 06:08:03;;;;;;;5.53;2.38;;;;;;;20.10;87.84;101713.94;4972845;28;20047;-59
2022/05/19 06:10:31;;;;;;;6.65;2.20;;;;;;;20.16;87.41;101706.34;4973276;28;20537;-59
2022/05/19 06:13:01;;;;;;;5.30;2.03;;;;;;;20.23;85.41;101699.44;4973399;28;20051;-59
2022/05/19 06:15:29;;;;;;;3.33;1.85;;;;;;;20.32;86.10;101679.88;4973372;28;20042;-55
2022/05/19 06:17:57;;;;;;;5.38;2.10;;;;;;;20.39;86.31;101653.44;4973225;28;20074;-57
2022/05/19 06:20:25;;;;;;;3.72;1.77;;;;;;;20.43;84.36;101666.34;4969922;28;20073;-59
2022/05/19 06:22:54;;;;;;;5.35;2.08;;;;;;;20.50;84.79;101665.78;4969905;28;20105;-59
2022/05/19 06:25:24;;;;;;;4.10;2.13;;;;;;;20.63;83.65;101655.63;4972835;28;20082;-59
2022/05/19 06:27:53;;;;;;;5.25;2.20;;;;;;;20.69;84.79;101660.41;4970278;28;20093;-60
2022/05/19 06:30:23;;;;;;;6.30;2.10;;;;;;;20.69;85.68;101664.91;4969208;28;20516;-60
2022/05/19 06:32:52;;;;;;;20.20;3.33;;;;;;;20.64;87.60;101651.13;4971335;28;20105;-59
2022/05/19 06:35:23;;;;;;;7.38;2.53;;;;;;;20.62;86.12;101637.91;4973332;28;20050;-59
2022/05/19 06:37:52;;;;;;;6.57;2.42;;;;;;;20.67;84.62;101629.44;4971764;28;20054;-60
2022/05/19 06:40:21;;;;;;;5.80;2.20;;;;;;;20.64;84.81;101664.47;4969705;28;20121;-60
2022/05/19 06:42:49;;;;;;;4.13;2.15;;;;;;;20.66;86.59;101654.50;4971321;28;20050;-57
2022/05/19 06:45:20;;;;;;;5.72;2.45;;;;;;;20.68;86.10;101642.72;4973219;28;20054;-58
2022/05/19 06:47:51;;;;;;;10.48;3.20;;;;;;;20.75;84.20;101654.47;4972944;28;20065;-57
2022/05/19 06:50:20;;;;;;;8.77;2.95;;;;;;;20.74;85.26;101639.44;4972631;28;20047;-59
2022/05/19 06:52:50;;;;;;;8.18;2.97;;;;;;;20.74;86.68;101620.72;4972335;28;20467;-59
2022/05/19 06:55:20;;;;;;;5.18;2.20;;;;;;;20.73;85.66;101612.84;4973025;28;20047;-60
2022/05/19 06:57:51;;;;;;;6.20;2.80;;;;;;;20.79;85.02;101592.72;4972932;28;20134;-60
2022/05/19 07:00:22;;;;;;;7.47;2.60;;;;;;;20.86;84.60;101599.13;4970473;28;20066;-57
2022/05/19 07:02:53;;;;;;;6.88;2.58;;;;;;;20.95;83.06;101608.94;4970161;28;20054;-57
2022/05/19 07:05:25;;;;;;;7.15;2.78;;;;;;;21.05;82.47;101615.06;4971115;28;20379;-59
2022/05/19 07:07:53;;;;;;;31.58;5.10;;;;;;;21.21;81.55;101622.41;4973054;28;20535;-57
2022/05/19 07:10:24;;;;;;;17.60;4.90;;;;;;;21.20;82.31;101615.41;4971573;28;20051;-57
2022/05/19 07:12:52;;;;;;;24.08;4.65;;;;;;;21.25;82.56;101617.63;4972576;28;20043;-61
2022/05/19 07:15:21;;;;;;;12.93;3.55;;;;;;;21.20;83.17;101623.44;4972792;28;20046;-57
2022/05/19 07:17:50;;;;;;;28.38;5.28;;;;;;;21.34;83.44;101626.56;4972706;28;20211;-60
2022/05/19 07:23:06;;;;;;;9.43;3.15;;;;;;;21.45;83.75;101618.31;4972670;28;20065;-56
2022/05/19 07:25:34;;;;;;;22.95;5.35;;;;;;;21.54;83.73;101620.13;4972984;28;20494;-57
2022/05/19 07:28:02;;;;;;;7.55;2.83;;;;;;;21.57;83.14;101616.28;4970198;28;20055;-60
2022/05/19 07:30:30;;;;;;;6.80;2.92;;;;;;;21.60;82.34;101621.31;4968778;28;20046;-60
2022/05/19 07:33:00;;;;;;;7.88;2.60;;;;;;;21.70;82.98;101621.25;4971327;28;20049;-58
2022/05/19 07:35:28;;;;;;;6.95;3.13;;;;;;;21.78;81.77;101618.63;4972692;28;20054;-60
2022/05/19 07:37:56;;;;;;;5.80;2.95;;;;;;;21.70;83.45;101627.41;4973717;28;20133;-59
2022/05/19 07:40:24;;;;;;;8.20;3.70;;;;;;;21.73;85.01;101631.63;4974968;28;20077;-58
2022/05/19 07:42:52;;;;;;;6.47;3.25;;;;;;;21.85;83.63;101640.25;4972464;28;20478;-60
2022/05/19 07:45:21;;;;;;;4.57;2.53;;;;;;;21.93;83.49;101643.84;4976786;28;20126;-56
2022/05/19 07:47:49;;;;;;;6.30;3.13;;;;;;;22.05;81.54;101631.03;4976695;28;20047;-60
2022/05/19 07:50:18;;;;;;;7.90;2.72;;;;;;;22.01;82.42;101620.81;4976500;28;20138;-60
2022/05/19 07:52:46;;;;;;;6.90;3.08;;;;;;;22.08;81.88;101641.44;4975865;28;20042;-58
2022/05/19 07:55:14;;;;;;;6.88;3.45;;;;;;;22.10;81.57;101643.97;4975616;28;20146;-61
2022/05/19 07:57:43;;;;;;;12.35;3.10;;;;;;;22.16;81.41;101634.47;4975819;28;20051;-61
2022/05/19 08:00:11;;;;;;;6.43;3.10;;;;;;;22.17;78.44;101638.81;4973663;28;20490;-58
2022/05/19 08:02:40;;;;;;;5.18;2.85;;;;;;;22.24;79.12;101634.53;4973760;28;20145;-60
2022/05/19 08:05:09;;;;;;;6.60;3.22;;;;;;;22.29;78.97;101637.56;4975506;28;20085;-60
2022/05/19 08:07:38;;;;;;;7.85;3.22;;;;;;;22.35;77.40;101615.53;4975566;28;20065;-57
2022/05/19 08:10:24;;;;;;;8.52;3.13;;;;;;;22.43;78.04;101607.53;4975651;28;20046;-57
2022/05/19 08:15:39;;;;;;;7.47;3.03;;;;;;;22.52;77.68;101608.41;4974743;28;20054;-57
2022/05/19 08:18:10;;;;;;;10.27;3.25;;;;;;;22.66;76.66;101598.94;4972693;28;20557;-59
2022/05/19 08:20:41;;;;;;;7.18;3.83;;;;;;;22.87;76.25;101608.41;4973558;28;20138;-59
2022/05/19 08:23:14;;;;;;;9.50;3.90;;;;;;;23.07;74.71;101604.41;4971594;28;20101;-60
2022/05/19 08:25:43;;;;;;;;;;;;;;;23.36;75.66;101621.13;4973330;28;20046;-57
2022/05/19 08:28:14;;;;;;;6.47;3.60;;;;;;;23.49;71.46;101624.13;4974954;28;19961;-60
2022/05/19 08:30:43;;;;;;;7.55;3.47;;;;;;;23.46;70.46;101635.19;4974912;28;20105;-59
2022/05/19 08:33:11;;;;;;;6.75;3.67;;;;;;;23.57;70.09;101634.91;4974734;28;20343;-60
2022/05/19 08:35:39;;;;;;;5.82;3.00;;;;;;;23.78;71.48;101642.44;4975018;28;20054;-60
2022/05/19 08:38:07;;;;;;;8.27;3.35;;;;;;;24.00;70.16;101648.16;4975117;28;20510;-60
2022/05/19 08:40:41;;;;;;;5.53;3.17;;;;;;;24.25;69.42;101648.13;4974874;28;20051;-60
2022/05/19 08:43:11;;;;;;;8.65;3.45;;;;;;;24.35;70.99;101645.25;4974941;28;20101;-60
2022/05/19 08:45:43;;;;;;;7.68;3.90;;;;;;;24.44;69.19;101634.28;4971506;28;20074;-60
2022/05/19 08:48:13;;;;;;;6.07;3.28;;;;;;;24.75;66.75;101636.25;4971106;28;20134;-60
2022/05/19 08:50:47;;;;;;;6.88;3.28;;;;;;;24.98;66.38;101619.34;4974897;28;20051;-60
2022/05/19 08:53:15;;;;;;;8.10;4.30;;;;;;;24.94;65.41;101618.84;4974775;28;20479;-61
2022/05/19 08:55:54;;;;;;;6.10;3.40;;;;;;;25.30;66.07;101615.59;4971453;28;20517;-60
2022/05/19 08:58:46;;;;;;;8.88;4.32;;;;;;;25.68;64.21;101605.91;4970643;28;20051;-60
2022/05/19 09:01:20;;;;;;;8.60;4.38;;;;;;;25.46;62.57;101598.50;4973504;28;20043;-58
2022/05/19 09:04:01;;;;;;;6.72;4.10;;;;;;;25.69;64.12;101597.66;4974599;28;20065;-59
2022/05/19 09:09:55;;;;;;;7.80;4.70;;;;;;;26.54;60.31;101600.97;4972849;28;20532;-58
2022/05/19 09:12:28;;;;;;;8.02;4.60;;;;;;;26.82;61.25;101605.72;4974296;28;20484;-59
2022/05/19 09:14:56;;;;;;;9.30;4.47;;;;;;;26.91;59.74;101601.03;4974145;28;20059;-60
2022/05/19 09:17:29;;;;;;;7.88;4.07;;;;;;;27.05;57.53;101605.56;4974681;28;20066;-58
2022/05/19 09:20:00;;;;;;;;;;;;;;;27.02;58.60;101611.34;4974355;28;20498;-59
2022/05/19 09:22:33;;;;;;;8.23;3.38;;;;;;;27.20;55.89;101607.38;4971970;28;20313;-58
2022/05/19 09:25:05;;;;;;;6.38;3.83;;;;;;;27.28;55.95;101604.53;4972244;28;20050;-60
2022/05/19 09:27:37;;;;;;;6.60;3.93;;;;;;;27.32;56.54;101593.19;4973985;28;20055;-60
2022/05/19 09:30:08;;;;;;;8.85;4.32;;;;;;;27.25;55.15;101604.94;4973193;28;20054;-60
2022/05/19 09:32:44;;;;;;;9.23;4.55;;;;;;;27.57;55.79;101613.56;4971498;28;20502;-59
2022/05/19 09:35:18;;;;;;;10.63;3.70;;;;;;;27.51;55.23;101609.78;4973042;28;20058;-58
2022/05/19 09:37:49;;;;;;;8.00;3.85;;;;;;;27.68;55.29;101599.53;4974546;28;20043;-57
2022/05/19 09:40:24;;;;;;;7.65;4.57;;;;;;;27.63;55.00;101607.41;4973252;28;20402;-59
2022/05/19 09:43:17;;;;;;;8.40;4.25;;;;;;;27.87;54.25;101610.69;4974771;28;20046;-60
2022/05/19 09:45:48;;;;;;;8.90;3.95;;;;;;;28.08;54.22;101607.13;4972966;28;20561;-60
2022/05/19 09:48:24;;;;;;;6.55;3.88;;;;;;;28.16;53.05;101609.69;4970262;28;20070;-59
2022/05/19 09:50:52;;;;;;;6.95;4.00;;;;;;;27.87;52.54;101607.97;4973332;28;20457;-60
2022/05/19 09:53:25;;;;;;;8.90;3.97;;;;;;;27.74;51.65;101606.03;4973913;28;20086;-59
2022/05/19 09:55:56;;;;;;;7.88;3.00;;;;;;;27.88;52.94;101605.06;4973440;28;20062;-60
2022/05/19 09:58:30;;;;;;;6.68;4.07;;;;;;;28.00;50.16;101616.22;4973612;28;20046;-60
2022/05/19 10:00:59;;;;;;;9.85;3.83;;;;;;;27.83;50.86;101613.78;4973317;28;20043;-58
2022/05/19 10:03:35;;;;;;;6.80;3.67;;;;;;;27.85;51.34;101608.19;4981436;28;20494;-59
2022/05/19 10:06:07;;;;;;;7.97;3.05;;;;;;;28.06;49.61;101607.34;4993142;28;20069;-59
2022/05/19 10:08:38;;;;;;;7.43;3.58;;;;;;;28.14;49.23;101603.63;4993432;28;20437;-59
2022/05/19 10:11:27;;;;;;;8.07;3.47;;;;;;;28.09;49.48;101606.94;4991110;28;20046;-60
2022/05/19 10:14:05;;;;;;;6.78;3.88;;;;;;;27.85;49.13;101601.97;4982390;28;20053;-59
2022/05/19 10:16:38;;;;;;;6.30;3.25;;;;;;;27.73;51.39;101602.50;4973366;28;20386;-61
2022/05/19 10:19:18;;;;;;;5.55;2.90;;;;;;;28.01;48.04;101592.75;4969937;28;20502;-62
2022/05/19 10:22:10;;;;;;;5.78;2.70;;;;;;;28.08;47.71;101596.31;4968587;28;20086;-62
2022/05/19 10:25:09;;;;;;;6.55;2.63;;;;;;;28.02;47.35;101583.59;4973392;28;20101;-61
2022/05/19 10:31:05;;;;;;;5.90;2.70;;;;;;;28.26;47.12;101561.47;4992495;28;20359;-62
2022/05/19 10:33:54;;;;;;;6.50;3.08;;;;;;;28.19;46.99;101547.09;4992735;28;20520;-61
2022/05/19 10:36:34;;;;;;;7.25;3.13;;;;;;;28.35;46.91;101540.53;4992727;28;20050;-62
2022/05/19 10:39:18;;;;;;;6.63;2.85;;;;;;;28.38;47.06;101531.16;4992549;28;20065;-60
2022/05/19 10:41:59;;;;;;;6.47;2.95;;;;;;;28.59;46.92;101530.19;4990321;28;20633;-59
2022/05/19 10:44:53;;;;;;;6.32;2.50;;;;;;;28.75;46.46;101529.84;4991895;28;20054;-62
2022/05/19 10:47:38;;;;;;;6.22;2.40;;;;;;;28.86;46.54;101525.72;4989731;28;20572;-61
2022/05/19 10:50:21;;;;;;;8.13;2.63;;;;;;;28.89;46.29;101519.06;4989570;28;20065;-60
2022/05/19 10:53:08;;;;;;;5.18;2.35;;;;;;;28.94;47.68;101521.97;4990201;28;20399;-62
2022/05/19 10:55:47;;;;;;;6.03;3.22;;;;;;;28.97;46.04;101524.28;4988698;28;20058;-61
2022/05/19 10:58:29;;;;;;;9.35;3.50;;;;;;;29.04;45.74;101519.72;4992480;28;20046;-61
2022/05/19 11:01:08;;;;;;;6.22;3.13;;;;;;;29.24;47.69;101521.59;4990656;28;20047;-62
2022/05/19 11:04:13;;;;;;;7.07;3.38;;;;;;;29.20;46.51;101521.16;4988771;28;20050;-62
2022/05/19 11:07:04;;;;;;;7.25;3.58;;;;;;;29.13;47.10;101515.75;4967750;28;20061;-61
2022/05/19 11:09:41;;;;;;;9.55;3.90;;;;;;;29.23;45.63;101509.09;4992390;28;20046;-60
2022/05/19 11:12:19;;;;;;;9.00;3.92;;;;;;;29.25;45.16;101513.28;4994282;28;20054;-61
2022/05/19 11:14:58;;;;;;;6.03;3.33;;;;;;;29.25;46.51;101517.88;4992449;28;20054;-60
2022/05/19 11:17:37;;;;;;;6.60;2.90;;;;;;;29.41;44.79;101501.22;4995883;28;20093;-59
2022/05/19 11:20:13;;;;;;;5.85;2.85;;;;;;;29.36;45.08;101495.56;4992622;28;20062;-58
2022/05/19 11:22:42;;;;;;;6.90;3.00;;;;;;;29.54;45.20;101491.41;4992686;28;20564;-60
2022/05/19 11:28:04;;;;;;;8.93;2.92;;;;;;;29.70;43.83;101482.00;4966367;28;20437;-59
2022/05/19 11:30:38;;;;;;;7.22;3.20;;;;;;;29.46;43.70;101485.16;4996384;28;20054;-59
2022/05/19 11:33:13;;;;;;;11.00;3.40;;;;;;;29.56;42.25;101482.03;4996286;28;20045;-60
2022/05/19 11:35:46;;;;;;;8.57;3.00;;;;;;;29.60;43.82;101477.00;4995160;28;20046;-61
2022/05/19 11:38:20;;;;;;;6.18;3.03;;;;;;;29.60;43.89;101485.13;4992102;28;20054;-60
2022/05/19 11:40:56;;;;;;;6.47;3.10;;;;;;;29.45;43.82;101482.63;4994232;28;20081;-61
2022/05/19 11:43:32;;;;;;;5.50;3.28;;;;;;;29.34;44.48;101487.66;4995412;28;20046;-61
2022/05/19 11:46:05;;;;;;;5.50;2.72;;;;;;;29.31;45.61;101488.09;4996024;28;20516;-60
2022/05/19 11:57:22;;;;;;;19.85;7.07;;;;;;;27.82;66.48;101531.03;4991463;28;20042;-57